Time;durP1;ratioP1;P1;durP2;ratioP2;P2;SDS_P1;SDS_P2;PMS_P1;PMS_P2;Temp;Humidity;BMP_temperature;BMP_pressure;BME280_temperature;BME280_humidity;BME280_pressure;Samples;Min_cycle;Max_cycle;Signal;HPM_P1;HPM_P2
2023/05/31 00:02:05;;;;;;;;;;;;;;;11.55;86.69;102592.81;5023522;28;19956;-45
2023/05/31 00:04:30;;;;;;;;;;;;;;;11.55;88.06;102599.66;5019681;28;19952;-44
2023/05/31 00:06:56;;;;;;;;;;;;;;;11.51;87.72;102601.19;5019421;28;20008;-43
2023/05/31 00:09:21;;;;;;;;;;;;;;;11.49;86.07;102599.34;5023324;28;20351;-42
2023/05/31 00:11:46;;;;;;;;;;;;;;;11.47;86.38;102598.38;5013995;28;19918;-44
2023/05/31 00:14:11;;;;;;;;;;;;;;;11.45;88.02;102597.41;5017280;28;19957;-43
2023/05/31 00:16:37;;;;;;;;;;;;;;;11.44;87.44;102603.38;5017855;28;19917;-45
2023/05/31 00:19:02;;;;;;;;;;;;;;;11.41;89.75;102596.38;5018589;28;20016;-47
2023/05/31 00:21:27;;;;;;;;;;;;;;;11.39;85.94;102602.22;5020073;28;19940;-47
2023/05/31 00:23:52;;;;;;;;;;;;;;;11.37;89.75;102601.28;5018387;28;19935;-45
2023/05/31 00:26:18;;;;;;;;;;;;;;;11.35;90.01;102600.31;5028448;28;20294;-44
2023/05/31 00:28:43;;;;;;;;;;;;;;;11.35;90.84;102600.31;5017899;28;20202;-44
2023/05/31 00:31:08;;;;;;;;;;;;;;;11.35;89.44;102602.91;5024103;28;20439;-44
2023/05/31 00:33:34;;;;;;;;;;;;;;;11.31;88.71;102601.84;5017335;28;20419;-45
2023/05/31 00:35:59;;;;;;;;;;;;;;;11.30;89.09;102596.63;5024196;28;20399;-44
2023/05/31 00:38:24;;;;;;;;;;;;;;;11.28;89.24;102601.66;5024224;28;20399;-46
2023/05/31 00:40:49;;;;;;;;;;;;;;;11.24;89.52;102592.03;5015216;28;19967;-46
2023/05/31 00:43:15;;;;;;;;;;;;;;;11.23;90.78;102593.72;5019728;28;20295;-45
2023/05/31 00:45:40;;;;;;;;;;;;;;;11.22;93.08;102601.34;5016681;28;19917;-47
2023/05/31 00:48:05;;;;;;;;;;;;;;;11.17;92.20;102595.97;5016098;28;19917;-44
2023/05/31 00:50:31;;;;;;;;;;;;;;;11.15;92.24;102600.13;5016708;28;19960;-44
2023/05/31 00:52:57;;;;;;;;;;;;;;;11.14;93.50;102598.38;5016458;28;20302;-57
2023/05/31 00:55:23;;;;;;;;;;;;;;;11.13;93.19;102614.63;5016689;28;19967;-56
2023/05/31 00:57:50;;;;;;;;;;;;;;;11.12;92.98;102606.81;5015992;28;20281;-56
2023/05/31 01:00:15;;;;;;;;;;;;;;;11.10;94.03;102606.75;5023200;28;19972;-56
2023/05/31 01:02:41;;;;;;;;;;;;;;;11.10;94.04;102603.25;5018590;28;19925;-56
2023/05/31 01:05:07;;;;;;;;;;;;;;;11.07;94.38;102608.25;5018119;28;19952;-56
2023/05/31 01:07:32;;;;;;;;;;;;;;;11.06;96.07;102615.09;5020670;28;20360;-57
2023/05/31 01:09:58;;;;;;;;;;;;;;;11.02;95.34;102608.88;5016256;28;19952;-57
2023/05/31 01:12:43;;;;;;;;;;;;;;;11.00;91.17;102607.94;5019508;28;20004;-57
2023/05/31 01:15:09;;;;;;;;;;;;;;;11.00;93.35;102614.78;5024623;28;20296;-57
2023/05/31 01:17:37;;;;;;;;;;;;;;;10.96;92.10;102611.13;5017260;28;20008;-57
2023/05/31 01:20:08;;;;;;;;;;;;;;;10.95;94.87;102600.75;5019402;28;19959;-56
2023/05/31 01:22:52;;;;;;;;;;;;;;;10.94;96.11;102597.31;5014811;28;19968;-55
2023/05/31 01:25:23;;;;;;;;;;;;;;;10.90;96.41;102599.63;5015931;28;20005;-57
2023/05/31 01:27:49;;;;;;;;;;;;;;;10.86;95.81;102602.81;5020767;28;19917;-57
2023/05/31 01:30:16;;;;;;;;;;;;;;;10.85;94.89;102613.91;5015457;28;19929;-57
2023/05/31 01:32:42;;;;;;;;;;;;;;;10.84;93.71;102617.31;5017553;28;19951;-55
2023/05/31 01:35:07;;;;;;;;;;;;;;;10.83;96.58;102611.28;5016816;28;19953;-56
2023/05/31 01:37:33;;;;;;;;;;;;;;;10.81;94.16;102619.72;5017846;28;19924;-56
2023/05/31 01:39:58;;;;;;;;;;;;;;;10.79;95.27;102605.88;5020494;28;20472;-56
2023/05/31 01:42:23;;;;;;;;;;;;;;;10.78;94.09;102610.13;5023589;28;19917;-57
2023/05/31 01:44:50;;;;;;;;;;;;;;;10.74;95.57;102603.94;5024383;28;19921;-57
2023/05/31 01:47:15;;;;;;;;;;;;;;;10.73;96.93;102601.25;5024207;28;20395;-56
2023/05/31 01:49:41;;;;;;;;;;;;;;;10.71;96.30;102600.31;5022558;28;19917;-55
2023/05/31 01:52:07;;;;;;;;;;;;;;;10.67;97.69;102594.09;5024563;28;20020;-56
2023/05/31 01:54:32;;;;;;;;;;;;;;;10.66;98.57;102599.16;5023332;28;19918;-56
2023/05/31 01:56:59;;;;;;;;;;;;;;;10.63;96.89;102591.28;5021452;28;19920;-57
2023/05/31 01:59:25;;;;;;;;;;;;;;;10.60;98.64;102591.09;5024754;28;19924;-55
2023/05/31 02:01:51;;;;;;;;;;;;;;;10.58;98.03;102590.16;5022165;28;19917;-56
2023/05/31 02:04:17;;;;;;;;;;;;;;;10.54;99.12;102594.22;5010607;28;19922;-56
2023/05/31 02:06:43;;;;;;;;;;;;;;;10.52;96.83;102588.13;5015658;28;19920;-56
2023/05/31 02:09:08;;;;;;;;;;;;;;;10.50;98.32;102586.28;5019413;28;19925;-56
2023/05/31 02:11:34;;;;;;;;;;;;;;;10.46;95.87;102583.50;5013866;28;19921;-56
2023/05/31 02:13:59;;;;;;;;;;;;;;;10.46;96.73;102580.94;5015652;28;19936;-56
2023/05/31 02:16:24;;;;;;;;;;;;;;;10.44;97.85;102581.66;5010890;28;19951;-56
2023/05/31 02:18:51;;;;;;;;;;;;;;;10.43;98.89;102582.44;5016046;28;19964;-57
2023/05/31 02:21:16;;;;;;;;;;;;;;;10.39;99.30;102577.94;5019881;28;19920;-56
2023/05/31 02:23:41;;;;;;;;;;;;;;;10.40;96.17;102578.03;5017537;28;19924;-56
2023/05/31 02:26:07;;;;;;;;;;;;;;;10.41;99.89;102578.91;5019390;28;19918;-57
2023/05/31 02:28:32;;;;;;;;;;;;;;;10.38;100.00;102574.50;5012675;28;19963;-56
2023/05/31 02:30:58;;;;;;;;;;;;;;;10.38;98.45;102582.22;5011432;28;19926;-56
2023/05/31 02:33:23;;;;;;;;;;;;;;;10.36;100.00;102577.75;5012956;28;20320;-56
2023/05/31 02:35:49;;;;;;;;;;;;;;;10.33;96.15;102578.50;5014993;28;19917;-56
2023/05/31 02:38:14;;;;;;;;;;;;;;;10.33;99.78;102580.19;5016955;28;19930;-57
2023/05/31 02:40:39;;;;;;;;;;;;;;;10.33;100.00;102572.47;5015394;28;19917;-57
2023/05/31 02:43:05;;;;;;;;;;;;;;;10.31;100.00;102574.03;5016186;28;19925;-56
2023/05/31 02:45:30;;;;;;;;;;;;;;;10.31;98.30;102574.94;5025438;28;19923;-57
2023/05/31 02:47:55;;;;;;;;;;;;;;;10.31;100.00;102576.63;5019426;28;19952;-56
2023/05/31 02:50:21;;;;;;;;;;;;;;;10.29;100.00;102575.66;5024438;28;20438;-56
2023/05/31 02:52:46;;;;;;;;;;;;;;;10.27;100.00;102580.72;5016070;28;20427;-56
2023/05/31 02:55:11;;;;;;;;;;;;;;;10.25;100.00;102577.16;5020102;28;20016;-57
2023/05/31 02:57:36;;;;;;;;;;;;;;;10.23;100.00;102578.75;5029120;28;19917;-56
2023/05/31 03:00:21;;;;;;;;;;;;;;;10.21;100.00;102583.78;5016549;28;19923;-57
2023/05/31 03:02:46;;;;;;;;;;;;;;;10.20;100.00;102574.31;5016789;28;19968;-57
2023/05/31 03:05:11;;;;;;;;;;;;;;;10.19;100.00;102571.63;5021711;28;20003;-56
2023/05/31 03:07:36;;;;;;;;;;;;;;;10.16;100.00;102569.78;5017117;28;19948;-56
2023/05/31 03:10:04;;;;;;;;;;;;;;;10.18;100.00;102573.31;5027859;28;19925;-56
2023/05/31 03:12:30;;;;;;;;;;;;;;;10.17;100.00;102579.25;5029691;28;20380;-57
2023/05/31 03:14:55;;;;;;;;;;;;;;;10.16;100.00;102580.06;5026951;28;19920;-57
2023/05/31 03:17:20;;;;;;;;;;;;;;;10.16;100.00;102584.31;5019790;28;20266;-57
2023/05/31 03:19:46;;;;;;;;;;;;;;;10.15;99.74;102587.69;5013197;28;19948;-56
2023/05/31 03:22:11;;;;;;;;;;;;;;;10.14;99.18;102584.25;5024268;28;19917;-57
2023/05/31 03:24:36;;;;;;;;;;;;;;;10.14;100.00;102580.78;5026476;28;19921;-56
2023/05/31 03:27:01;;;;;;;;;;;;;;;10.11;100.00;102581.47;5019393;28;19917;-56
2023/05/31 03:29:27;;;;;;;;;;;;;;;10.12;100.00;102583.25;5017434;28;19975;-57
2023/05/31 03:31:52;;;;;;;;;;;;;;;10.11;100.00;102575.47;5014707;28;20419;-57
2023/05/31 03:34:18;;;;;;;;;;;;;;;10.11;100.00;102581.47;5014755;28;19928;-57
2023/05/31 03:36:43;;;;;;;;;;;;;;;10.09;100.00;102583.09;5015859;28;20016;-57
2023/05/31 03:39:08;;;;;;;;;;;;;;;10.10;100.00;102579.72;5014788;28;19967;-57
2023/05/31 03:41:33;;;;;;;;;;;;;;;10.08;100.00;102575.31;5015803;28;19924;-58
2023/05/31 03:43:59;;;;;;;;;;;;;;;10.09;100.00;102575.38;5020419;28;19925;-57
2023/05/31 03:46:24;;;;;;;;;;;;;;;10.09;100.00;102574.50;5018177;28;19921;-57
2023/05/31 03:48:50;;;;;;;;;;;;;;;10.09;100.00;102570.25;5023314;28;20438;-48
2023/05/31 03:51:15;;;;;;;;;;;;;;;10.09;100.00;102566.78;5018258;28;19914;-45
2023/05/31 03:53:41;;;;;;;;;;;;;;;10.12;100.00;102569.50;5021948;28;19924;-43
2023/05/31 03:56:06;;;;;;;;;;;;;;;10.12;100.00;102577.22;5012722;28;20383;-47
2023/05/31 03:58:31;;;;;;;;;;;;;;;10.14;100.00;102573.97;5022805;28;20349;-44
2023/05/31 04:00:57;;;;;;;;;;;;;;;10.16;100.00;102572.34;5018007;28;19921;-47
2023/05/31 04:03:23;;;;;;;;;;;;;;;10.18;100.00;102573.31;5017287;28;20063;-44
2023/05/31 04:05:48;;;;;;;;;;;;;;;10.22;100.00;102576.97;5019089;28;20004;-43
2023/05/31 04:08:15;;;;;;;;;;;;;;;10.23;100.00;102568.47;5017234;28;20312;-44
2023/05/31 04:10:41;;;;;;;;;;;;;;;10.27;98.60;102573.00;5013662;28;20395;-44
2023/05/31 04:13:06;;;;;;;;;;;;;;;10.29;98.90;102571.38;5012043;28;19933;-44
2023/05/31 04:15:31;;;;;;;;;;;;;;;10.33;100.00;102575.91;5018689;28;19941;-42
2023/05/31 04:17:56;;;;;;;;;;;;;;;10.37;100.00;102574.38;5015809;28;19924;-43
2023/05/31 04:20:22;;;;;;;;;;;;;;;10.41;100.00;102579.78;5013216;28;19921;-43
2023/05/31 04:22:47;;;;;;;;;;;;;;;10.47;100.00;102580.13;5012781;28;19926;-43
2023/05/31 04:25:12;;;;;;;;;;;;;;;10.66;100.00;102579.47;5022184;28;19913;-44
2023/05/31 04:27:40;;;;;;;;;;;;;;;11.27;100.00;102569.00;5015629;28;19917;-44
2023/05/31 04:30:07;;;;;;;;;;;;;;;11.93;99.47;102567.25;5020619;28;19933;-45
2023/05/31 04:32:34;;;;;;;;;;;;;;;12.58;96.22;102577.28;5016606;28;19921;-44
2023/05/31 04:35:03;;;;;;;;;;;;;;;13.20;92.45;102565.47;5018517;28;19929;-43
2023/05/31 04:37:29;;;;;;;;;;;;;;;13.77;90.64;102579.16;5015152;28;19921;-43
2023/05/31 04:39:54;;;;;;;;;;;;;;;14.11;89.41;102566.81;5016059;28;19917;-44
2023/05/31 04:42:20;;;;;;;;;;;;;;;14.53;87.09;102571.97;5014353;28;19920;-44
2023/05/31 04:44:45;;;;;;;;;;;;;;;15.01;84.73;102572.97;5015118;28;19964;-45
2023/05/31 04:47:10;;;;;;;;;;;;;;;15.27;85.13;102573.03;5015047;28;19960;-44
2023/05/31 04:49:36;;;;;;;;;;;;;;;15.34;83.19;102572.41;5017354;28;20376;-45
2023/05/31 04:52:01;;;;;;;;;;;;;;;15.54;84.19;102576.59;5027528;28;19913;-44
2023/05/31 04:54:27;;;;;;;;;;;;;;;15.77;80.10;102581.72;5024942;28;20380;-43
2023/05/31 04:56:52;;;;;;;;;;;;;;;15.87;80.87;102573.41;5022530;28;19917;-46
2023/05/31 04:59:17;;;;;;;;;;;;;;;15.85;81.24;102576.81;5019092;28;19921;-45
2023/05/31 05:01:44;;;;;;;;;;;;;;;15.66;80.90;102581.38;5016117;28;19918;-45
2023/05/31 05:04:09;;;;;;;;;;;;;;;15.43;82.29;102583.13;5017562;28;19922;-44
2023/05/31 05:06:37;;;;;;;;;;;;;;;15.38;83.25;102579.47;5015946;28;19927;-44
2023/05/31 05:09:03;;;;;;;;;;;;;;;15.56;80.70;102582.72;5020987;28;19929;-45
2023/05/31 05:11:28;;;;;;;;;;;;;;;15.71;81.52;102582.41;5014446;28;19918;-47
2023/05/31 05:13:53;;;;;;;;;;;;;;;16.00;79.83;102588.56;5013362;28;19928;-46
2023/05/31 05:16:18;;;;;;;;;;;;;;;16.21;79.66;102577.13;5017517;28;19920;-49
2023/05/31 05:18:44;;;;;;;;;;;;;;;16.27;79.80;102574.75;5021171;28;19917;-44
2023/05/31 05:21:09;;;;;;;;;;;;;;;16.10;79.78;102569.00;5016105;28;20383;-46
2023/05/31 05:23:35;;;;;;;;;;;;;;;16.20;79.04;102584.03;5023213;28;20028;-46
2023/05/31 05:26:01;;;;;;;;;;;;;;;16.43;77.52;102584.75;5023637;28;19917;-46
2023/05/31 05:28:28;;;;;;;;;;;;;;;16.67;78.93;102579.44;5022088;28;19963;-45
2023/05/31 05:30:53;;;;;;;;;;;;;;;16.95;74.82;102588.09;5011108;28;19968;-46
2023/05/31 05:33:18;;;;;;;;;;;;;;;17.13;74.59;102588.63;5023491;28;19917;-46
2023/05/31 05:35:44;;;;;;;;;;;;;;;17.29;75.41;102582.13;5015649;28;19925;-47
2023/05/31 05:38:09;;;;;;;;;;;;;;;17.33;71.97;102591.78;5021309;28;20037;-45
2023/05/31 05:40:35;;;;;;;;;;;;;;;17.37;74.08;102584.09;5010131;28;19918;-45
2023/05/31 05:43:00;;;;;;;;;;;;;;;17.31;74.03;102593.47;5014823;28;20020;-47
2023/05/31 05:45:25;;;;;;;;;;;;;;;17.42;71.66;102595.53;5019038;28;19944;-46
2023/05/31 05:47:50;;;;;;;;;;;;;;;17.30;72.88;102587.38;5012596;28;19926;-44
2023/05/31 05:50:16;;;;;;;;;;;;;;;17.20;74.17;102593.16;5014830;28;20680;-44
2023/05/31 05:52:41;;;;;;;;;;;;;;;17.40;71.89;102593.69;5013111;28;20463;-46
2023/05/31 05:55:06;;;;;;;;;;;;;;;17.42;72.89;102592.91;5015495;28;19918;-44
2023/05/31 05:57:32;;;;;;;;;;;;;;;17.36;71.96;102586.69;5015577;28;19917;-45
2023/05/31 05:59:57;;;;;;;;;;;;;;;17.61;73.24;102586.50;5021749;28;19921;-44
2023/05/31 06:02:22;;;;;;;;;;;;;;;17.76;72.27;102582.56;5022314;28;20364;-44
2023/05/31 06:04:49;;;;;;;;;;;;;;;18.00;70.34;102585.78;5021905;28;19917;-44
2023/05/31 06:07:15;;;;;;;;;;;;;;;18.23;71.93;102592.44;5020381;28;19968;-46
2023/05/31 06:09:40;;;;;;;;;;;;;;;18.32;68.98;102594.38;5019770;28;19999;-45
2023/05/31 06:12:06;;;;;;;;;;;;;;;18.21;67.68;102596.72;5018923;28;19925;-47
2023/05/31 06:14:31;;;;;;;;;;;;;;;18.01;69.57;102592.72;5019812;28;19917;-45
2023/05/31 06:16:57;;;;;;;;;;;;;;;17.92;70.18;102590.78;5017528;28;19918;-43
2023/05/31 06:19:22;;;;;;;;;;;;;;;18.07;69.22;102584.19;5015624;28;19928;-45
2023/05/31 06:21:48;;;;;;;;;;;;;;;17.78;68.54;102588.69;5014369;28;20372;-46
2023/05/31 06:24:13;;;;;;;;;;;;;;;17.76;69.33;102587.75;5017359;28;20195;-45
2023/05/31 06:26:39;;;;;;;;;;;;;;;17.82;69.58;102593.13;5019784;28;20281;-45
2023/05/31 06:29:04;;;;;;;;;;;;;;;17.93;68.74;102597.75;5011215;28;19960;-44
2023/05/31 06:31:31;;;;;;;;;;;;;;;18.14;67.91;102601.72;5015969;28;19959;-48
2023/05/31 06:33:56;;;;;;;;;;;;;;;18.16;67.83;102600.06;5015873;28;19965;-46
2023/05/31 06:36:21;;;;;;;;;;;;;;;18.03;66.71;102595.41;5014740;28;20381;-46
2023/05/31 06:38:46;;;;;;;;;;;;;;;18.12;68.63;102596.50;5020170;28;19917;-46
2023/05/31 06:41:12;;;;;;;;;;;;;;;18.20;67.24;102599.28;5010604;28;19971;-46
2023/05/31 06:43:37;;;;;;;;;;;;;;;18.35;67.54;102601.38;5014812;28;19924;-46
2023/05/31 06:46:02;;;;;;;;;;;;;;;18.49;65.35;102611.25;5014127;28;20004;-45
2023/05/31 06:48:27;;;;;;;;;;;;;;;18.41;66.69;102607.59;5018193;28;19917;-46
2023/05/31 06:50:53;;;;;;;;;;;;;;;18.50;65.92;102612.13;5019640;28;19917;-48
2023/05/31 06:53:18;;;;;;;;;;;;;;;18.56;65.89;102611.41;5023282;28;19913;-46
2023/05/31 06:55:43;;;;;;;;;;;;;;;18.39;65.04;102604.09;5015365;28;20016;-46
2023/05/31 06:58:08;;;;;;;;;;;;;;;18.42;65.89;102606.75;5020145;28;20431;-45
2023/05/31 07:00:34;;;;;;;;;;;;;;;18.26;66.09;102598.53;5021262;28;19967;-45
2023/05/31 07:02:59;;;;;;;;;;;;;;;18.23;65.69;102600.25;5021883;28;19960;-47
2023/05/31 07:05:25;;;;;;;;;;;;;;;18.52;65.12;102610.47;5025297;28;20242;-47
2023/05/31 07:07:50;;;;;;;;;;;;;;;18.40;64.69;102602.38;5021450;28;19918;-46
2023/05/31 07:10:15;;;;;;;;;;;;;;;18.50;65.01;102604.31;5022520;28;20383;-43
2023/05/31 07:12:40;;;;;;;;;;;;;;;18.54;65.10;102607.88;5013613;28;19924;-46
2023/05/31 07:15:08;;;;;;;;;;;;;;;18.69;64.80;102614.38;5017021;28;19920;-45
2023/05/31 07:17:34;;;;;;;;;;;;;;;18.77;63.82;102608.44;5015867;28;19953;-46
2023/05/31 07:19:59;;;;;;;;;;;;;;;18.83;64.72;102599.03;5014728;28;19952;-45
2023/05/31 07:22:24;;;;;;;;;;;;;;;18.88;64.35;102599.16;5018527;28;19918;-45
2023/05/31 07:24:49;;;;;;;;;;;;;;;18.99;62.76;102595.03;5020608;28;20273;-44
2023/05/31 07:27:15;;;;;;;;;;;;;;;18.86;63.97;102591.25;5021802;28;19921;-46
2023/05/31 07:29:40;;;;;;;;;;;;;;;19.04;62.74;102580.34;5016479;28;19967;-47
2023/05/31 07:32:05;;;;;;;;;;;;;;;19.29;63.02;102584.31;5014081;28;19967;-45
2023/05/31 07:34:31;;;;;;;;;;;;;;;19.39;62.08;102575.81;5013643;28;19928;-43
2023/05/31 07:36:57;;;;;;;;;;;;;;;19.49;61.70;102585.59;5015725;28;19913;-45
2023/05/31 07:39:22;;;;;;;;;;;;;;;19.39;61.92;102572.34;5019484;28;19917;-47
2023/05/31 07:41:47;;;;;;;;;;;;;;;19.43;62.21;102577.66;5018145;28;19948;-47
2023/05/31 07:44:13;;;;;;;;;;;;;;;19.71;60.68;102568.59;5024330;28;19978;-46
2023/05/31 07:46:38;;;;;;;;;;;;;;;19.70;60.83;102569.47;5022902;28;20368;-44
2023/05/31 07:49:03;;;;;;;;;;;;;;;19.64;61.06;102566.75;5017127;28;20442;-45
2023/05/31 07:51:30;;;;;;;;;;;;;;;19.69;59.83;102566.84;5017058;28;19921;-44
2023/05/31 07:53:55;;;;;;;;;;;;;;;19.74;62.06;102570.41;5016978;28;19918;-44
2023/05/31 07:56:20;;;;;;;;;;;;;;;19.95;60.98;102575.09;5021487;28;19918;-44
2023/05/31 07:58:46;;;;;;;;;;;;;;;20.04;60.60;102568.31;5016820;28;20485;-45
2023/05/31 08:01:11;;;;;;;;;;;;;;;20.17;59.41;102566.75;5020955;28;20343;-57
2023/05/31 08:03:36;;;;;;;;;;;;;;;20.23;60.55;102572.09;5020559;28;19921;-56
2023/05/31 08:06:02;;;;;;;;;;;;;;;20.16;58.99;102570.25;5021259;28;19940;-56
2023/05/31 08:08:27;;;;;;;;;;;;;;;20.24;59.64;102562.50;5017657;28;19925;-56
2023/05/31 08:10:52;;;;;;;;;;;;;;;20.50;59.12;102561.19;5019751;28;19929;-55
2023/05/31 08:13:18;;;;;;;;;;;;;;;20.64;57.26;102555.28;5019439;28;19914;-56
2023/05/31 08:15:43;;;;;;;;;;;;;;;20.49;57.06;102555.94;5023967;28;19952;-56
2023/05/31 08:18:08;;;;;;;;;;;;;;;20.34;58.88;102556.56;5021123;28;19917;-57
2023/05/31 08:20:34;;;;;;;;;;;;;;;20.26;58.09;102559.09;5024303;28;20004;-55
2023/05/31 08:22:59;;;;;;;;;;;;;;;20.32;58.38;102553.94;5025719;28;19932;-56
2023/05/31 08:25:24;;;;;;;;;;;;;;;20.50;57.74;102553.34;5022107;28;19921;-56
2023/05/31 08:27:50;;;;;;;;;;;;;;;20.65;57.53;102550.06;5021141;28;19933;-56
2023/05/31 08:30:15;;;;;;;;;;;;;;;20.74;57.52;102563.25;5023843;28;20134;-56
2023/05/31 08:32:41;;;;;;;;;;;;;;;20.76;57.74;102552.84;5014975;28;20449;-56
2023/05/31 08:35:07;;;;;;;;;;;;;;;20.85;57.45;102545.97;5017717;28;20447;-56
2023/05/31 08:37:32;;;;;;;;;;;;;;;21.08;55.89;102542.75;5017972;28;20012;-56
2023/05/31 08:39:58;;;;;;;;;;;;;;;21.09;55.77;102542.75;5020392;28;19917;-56
2023/05/31 08:42:38;;;;;;;;;;;;;;;21.01;56.21;102548.78;5020715;28;19925;-56
2023/05/31 08:45:04;;;;;;;;;;;;;;;21.01;56.35;102548.78;5022605;28;19921;-56
2023/05/31 08:47:35;;;;;;;;;;;;;;;21.09;54.04;102544.50;5018633;28;19917;-56
2023/05/31 08:50:00;;;;;;;;;;;;;;;21.07;54.91;102536.66;5023329;28;19913;-56
2023/05/31 08:52:26;;;;;;;;;;;;;;;21.09;55.26;102534.03;5015706;28;19968;-56
2023/05/31 08:54:53;;;;;;;;;;;;;;;21.28;55.90;102538.59;5015854;28;20044;-56
2023/05/31 08:57:19;;;;;;;;;;;;;;;21.43;54.27;102543.16;5020699;28;19940;-55
2023/05/31 08:59:44;;;;;;;;;;;;;;;21.39;54.45;102534.38;5013523;28;19925;-56
2023/05/31 09:02:10;;;;;;;;;;;;;;;21.37;54.80;102537.88;5012991;28;20009;-56
2023/05/31 09:04:35;;;;;;;;;;;;;;;21.31;54.92;102536.06;5011462;28;20330;-54
2023/05/31 09:07:01;;;;;;;;;;;;;;;21.36;54.71;102531.75;5018989;28;20376;-56
2023/05/31 09:09:27;;;;;;;;;;;;;;;21.33;54.13;102531.72;5016603;28;19926;-56
2023/05/31 09:11:52;;;;;;;;;;;;;;;21.29;54.15;102523.81;5014936;28;19921;-55
2023/05/31 09:14:18;;;;;;;;;;;;;;;21.22;54.43;102532.44;5016343;28;20012;-55
2023/05/31 09:16:43;;;;;;;;;;;;;;;21.14;54.76;102527.13;5016805;28;19932;-56
2023/05/31 09:19:08;;;;;;;;;;;;;;;21.21;53.04;102523.69;5017545;28;19917;-55
2023/05/31 09:21:40;;;;;;;;;;;;;;;21.25;54.19;102519.41;5020622;28;20002;-55
2023/05/31 09:24:06;;;;;;;;;;;;;;;21.28;53.89;102524.63;5018962;28;20079;-56
2023/05/31 09:26:32;;;;;;;;;;;;;;;21.14;53.88;102532.34;5014906;28;20399;-55
2023/05/31 09:28:58;;;;;;;;;;;;;;;21.03;55.00;102521.75;5014831;28;19921;-55
2023/05/31 09:31:23;;;;;;;;;;;;;;;21.15;53.88;102521.91;5016279;28;20269;-55
2023/05/31 09:33:50;;;;;;;;;;;;;;;21.22;53.36;102516.72;5012733;28;19924;-56
2023/05/31 09:36:23;;;;;;;;;;;;;;;21.14;53.13;102514.91;5012410;28;19921;-56
2023/05/31 09:38:49;;;;;;;;;;;;;;;21.19;54.44;102511.47;5012417;28;20802;-56
2023/05/31 09:41:19;;;;;;;;;;;;;;;21.27;53.75;102500.22;5012188;28;19968;-56
2023/05/31 09:43:45;;;;;;;;;;;;;;;21.37;53.43;102502.09;5010435;28;19921;-57
2023/05/31 09:46:12;;;;;;;;;;;;;;;21.46;52.17;102503.03;5022000;28;19993;-57
2023/05/31 09:48:37;;;;;;;;;;;;;;;21.42;52.95;102500.41;5021346;28;19924;-56
2023/05/31 09:51:05;;;;;;;;;;;;;;;21.56;52.05;102499.66;5016737;28;19917;-56
2023/05/31 09:53:30;;;;;;;;;;;;;;;21.66;51.88;102498.88;5018007;28;20426;-56
2023/05/31 09:55:56;;;;;;;;;;;;;;;21.74;52.84;102504.16;5010817;28;19925;-55
2023/05/31 09:58:30;;;;;;;;;;;;;;;21.89;51.78;102493.78;5015334;28;20400;-56
2023/05/31 10:00:58;;;;;;;;;;;;;;;21.95;52.37;102481.59;5015532;28;20125;-55
2023/05/31 10:03:24;;;;;;;;;;;;;;;22.19;49.85;102493.16;5013027;28;19918;-56
2023/05/31 10:05:50;;;;;;;;;;;;;;;22.10;49.64;102491.38;5012368;28;19956;-57
2023/05/31 10:08:15;;;;;;;;;;;;;;;22.12;51.50;102486.13;5013177;28;19979;-58
2023/05/31 10:10:40;;;;;;;;;;;;;;;22.14;49.36;102487.00;5020425;28;20382;-58
2023/05/31 10:13:11;;;;;;;;;;;;;;;22.25;50.97;102492.31;5018125;28;20012;-58
2023/05/31 10:15:37;;;;;;;;;;;;;;;22.41;50.01;102475.81;5017005;28;19923;-57
2023/05/31 10:18:02;;;;;;;;;;;;;;;22.49;50.58;102481.94;5013073;28;20293;-58
2023/05/31 10:20:46;;;;;;;;;;;;;;;22.58;49.20;102478.50;5019922;28;20372;-57
2023/05/31 10:23:19;;;;;;;;;;;;;;;22.61;49.46;102471.50;5021250;28;19928;-57
2023/05/31 10:25:50;;;;;;;;;;;;;;;22.69;48.02;102463.66;5015420;28;19913;-57
2023/05/31 10:28:17;;;;;;;;;;;;;;;22.70;47.98;102465.44;5018326;28;19939;-57
2023/05/31 10:30:43;;;;;;;;;;;;;;;22.69;48.62;102461.03;5012438;28;19976;-57
2023/05/31 10:33:13;;;;;;;;;;;;;;;22.78;47.99;102465.44;5015713;28;20376;-57
2023/05/31 10:35:39;;;;;;;;;;;;;;;22.95;47.77;102448.91;5014431;28;19913;-58
2023/05/31 10:38:05;;;;;;;;;;;;;;;22.94;43.56;102452.41;5012824;28;19967;-57
2023/05/31 10:40:42;;;;;;;;;;;;;;;22.97;46.24;102451.53;5010346;28;19918;-58
2023/05/31 10:43:26;;;;;;;;;;;;;;;22.98;45.57;102448.03;5011112;28;20032;-58
2023/05/31 10:45:55;;;;;;;;;;;;;;;22.94;46.61;102436.69;5015446;28;19914;-58
2023/05/31 10:48:21;;;;;;;;;;;;;;;23.10;47.10;102431.44;5018351;28;20374;-58
2023/05/31 10:51:00;;;;;;;;;;;;;;;23.20;45.37;102431.44;5018850;28;19917;-58
2023/05/31 10:53:29;;;;;;;;;;;;;;;23.28;42.58;102449.81;5017665;28;19914;-58
2023/05/31 10:56:01;;;;;;;;;;;;;;;23.09;43.85;102424.44;5013178;28;19929;-58
2023/05/31 10:58:30;;;;;;;;;;;;;;;23.11;43.44;102423.56;5017089;28;19917;-58
2023/05/31 11:00:56;;;;;;;;;;;;;;;23.33;43.01;102424.44;5018022;28;19946;-58
2023/05/31 11:03:23;;;;;;;;;;;;;;;23.32;43.63;102425.34;5022825;28;19923;-58
2023/05/31 11:05:59;;;;;;;;;;;;;;;23.41;41.12;102438.44;5019937;28;20347;-57
2023/05/31 11:08:25;;;;;;;;;;;;;;;23.21;42.71;102433.19;5013771;28;19929;-57
2023/05/31 11:10:50;;;;;;;;;;;;;;;23.22;43.02;102427.06;5017051;28;19917;-59
2023/05/31 11:13:16;;;;;;;;;;;;;;;23.29;43.11;102417.44;5014758;28;19936;-48
2023/05/31 11:15:42;;;;;;;;;;;;;;;23.34;42.02;102418.31;5014482;28;19914;-44
2023/05/31 11:18:11;;;;;;;;;;;;;;;23.29;43.35;102417.44;5015140;28;19925;-45
2023/05/31 11:20:37;;;;;;;;;;;;;;;23.38;42.29;102422.72;5015716;28;20008;-46
2023/05/31 11:23:21;;;;;;;;;;;;;;;23.48;42.09;102413.97;5023658;28;20009;-48
2023/05/31 11:26:05;;;;;;;;;;;;;;;23.52;41.36;102412.19;5025526;28;19918;-47
2023/05/31 11:28:31;;;;;;;;;;;;;;;23.46;41.19;102434.06;5017956;28;20011;-45
2023/05/31 11:30:56;;;;;;;;;;;;;;;23.40;42.76;102415.69;5023133;28;20016;-46
2023/05/31 11:33:22;;;;;;;;;;;;;;;23.48;42.61;102413.97;5017335;28;19996;-48
2023/05/31 11:35:48;;;;;;;;;;;;;;;23.64;41.54;102413.97;5016837;28;19921;-43
2023/05/31 11:38:15;;;;;;;;;;;;;;;23.69;41.99;102409.56;5021504;28;20286;-46
2023/05/31 11:40:40;;;;;;;;;;;;;;;23.74;42.29;102406.06;5017194;28;19957;-45
2023/05/31 11:43:07;;;;;;;;;;;;;;;23.71;42.95;102407.81;5022426;28;20003;-45
2023/05/31 11:45:33;;;;;;;;;;;;;;;23.74;40.71;102415.69;5019833;28;19975;-45
2023/05/31 11:47:58;;;;;;;;;;;;;;;23.83;41.64;102404.28;5030134;28;20374;-46
2023/05/31 11:50:24;;;;;;;;;;;;;;;23.98;40.44;102410.38;5029745;28;19921;-44
2023/05/31 11:52:49;;;;;;;;;;;;;;;24.04;41.01;102405.09;5028912;28;19917;-45
2023/05/31 11:55:16;;;;;;;;;;;;;;;23.96;39.46;102403.38;5027357;28;20387;-45
2023/05/31 11:57:45;;;;;;;;;;;;;;;23.68;40.47;102398.19;5019900;28;19945;-45
2023/05/31 12:00:12;;;;;;;;;;;;;;;23.73;41.81;102388.56;5021070;28;20377;-48
2023/05/31 12:02:40;;;;;;;;;;;;;;;23.91;42.46;102395.53;5017948;28;19944;-44
2023/05/31 12:05:06;;;;;;;;;;;;;;;24.02;41.69;102380.56;5021467;28;19995;-44
2023/05/31 12:07:31;;;;;;;;;;;;;;;24.00;41.62;102381.47;5015438;28;19980;-44
2023/05/31 12:09:57;;;;;;;;;;;;;;;24.08;40.32;102387.56;5015430;28;19930;-46
2023/05/31 12:12:22;;;;;;;;;;;;;;;24.18;41.12;102378.75;5017164;28;19921;-44
2023/05/31 12:14:52;;;;;;;;;;;;;;;24.43;40.34;102371.66;5017542;28;20376;-44
2023/05/31 12:17:17;;;;;;;;;;;;;;;24.41;40.21;102370.81;5016995;28;19929;-44
2023/05/31 12:19:42;;;;;;;;;;;;;;;24.32;39.95;102368.19;5018000;28;19917;-43
2023/05/31 12:22:08;;;;;;;;;;;;;;;24.38;40.77;102359.41;5015051;28;20308;-46
2023/05/31 12:24:33;;;;;;;;;;;;;;;24.47;40.79;102362.88;5024254;28;19935;-46
2023/05/31 12:26:58;;;;;;;;;;;;;;;24.38;40.21;102365.53;5022878;28;19917;-44
2023/05/31 12:29:30;;;;;;;;;;;;;;;24.36;40.78;102363.81;5018576;28;20426;-44
2023/05/31 12:32:05;;;;;;;;;;;;;;;24.37;40.36;102348.03;5019130;28;19918;-44